Mesquite, Nevada Weather observations

Data are for observation ending at time listed.
 Day   Time    Ave.   Ave.  Ave.  Vector   Max.   Stn.    Total    Solar   Ave.  
  of    of     Air    Rel.  Wind   Wind    Wind   Baro.  Precip.   Rad.    Soil  
Year   Day     Temp.  Hum.  Speed  Dir.    Gust   Pres.                    Temp. 
2015   (PST)    F      %     mph   deg.    mph     mb.     in.     W/m2     F   
------------------------------------------------------------------------------
 148   21:00   84.7    20    7.0   320     10.4   947.5    0.00       1    85.9
 148   21:10   84.7    20    9.3   336     15.5   947.5    0.00       1    85.9
 148   21:20   84.8    20   10.4   343     17.6   947.7    0.00       1    85.8
 148   21:30   84.8    20   10.2   341     17.7   947.7    0.00       1    85.7
 148   21:40   84.8    20   11.9   345     18.4   947.8    0.00       1    85.6
 148   21:50   84.5    21   12.9   353     24.2   947.9    0.00       1    85.5
 148   22:00   84.2    21   14.3     1     20.5   947.9    0.00       1    85.3
 148   22:10   84.2    21   14.8     2     21.3   947.9    0.00       1    85.3
 148   22:20   84.1    21    9.7    24     20.0   948.0    0.00       1    85.8
 148   22:30   82.9    22    5.1   110     10.6   948.2    0.00       1    84.8
 148   22:40   82.9    22    2.0   282      3.3   948.2    0.00       1    83.8
 148   22:50   83.0    22    3.0   307      5.0   948.1    0.00       1    83.8
 148   23:00   82.5    22    3.3   290      5.7   948.0    0.00       1    83.3
 148   23:10   82.1    23    4.2   268      6.8   948.1    0.00       1    83.2
 148   23:20   81.6    24    4.7   306      8.7   948.2    0.00       1    82.8
 148   23:30   79.9    26    3.1    50      5.8   948.2    0.00       2    82.4
 148   23:40   77.6    27    2.8    29      5.5   948.3    0.00       1    80.5
 148   23:50   77.4    27    4.1    11      6.6   948.3    0.00       1    80.9
 149    0:00   77.4    28    5.1    16     10.1   948.3    0.00       1    80.8
 149    0:10   76.9    28    7.0    47      9.6   948.4    0.00       2    81.8
 149    0:20   76.3    30    6.9    58      9.0   948.5    0.00       1    81.6
 149    0:30   75.5    31    4.3    67      6.6   948.5    0.00       1    79.8
 149    0:40   74.9    32    3.1    45      5.4   948.5    0.00       1    79.6
 149    0:50   75.3    31    1.2   257      3.5   948.4    0.00       0    78.6
 149    1:00   76.6    30    2.9   337      5.0   948.3    0.00       0    79.3
 149    1:10   77.8    28    4.9   345      7.4   948.4    0.00       0    80.2
 149    1:20   78.7    26    5.6     0     10.0   948.4    0.00       0    80.9
 149    1:30   79.8    25    5.8   358     10.7   948.4    0.00       1    81.2
 149    1:40   80.0    25    5.4   349     10.4   948.4    0.00       0    80.9
 149    1:50   79.4    26    3.1   312      7.9   948.5    0.00       1    80.2
 149    2:00   77.7    28    3.6   232      5.0   948.5    0.00       1    79.2
 149    2:10   76.8    29    3.0   174      4.2   948.6    0.00       1    78.9
 149    2:20   74.8    31    4.6   176      6.6   948.7    0.00       0    77.5
 149    2:30   74.0    32    4.5   184      6.7   948.8    0.00       0    77.2
 149    2:40   74.6    31    4.1   186      7.5   948.9    0.00       1    77.5
 149    2:50   74.8    31    3.3   178      5.4   948.9    0.00       0    77.6
 149    3:00   74.1    32    1.3   131      3.0   949.1    0.00       0    77.3
 149    3:10   73.2    33    0.8    85      2.6   949.1    0.00       1    76.8
 149    3:20   73.3    33    0.8   117      2.6   949.2    0.00       0    76.9
 149    3:30   73.8    32    1.1   142      2.9   949.2    0.00       0    77.0
 149    3:40   73.4    33    0.9    86      2.5   949.2    0.00       0    76.2
 149    3:50   73.6    32    1.9    83      5.0   949.2    0.00       0    76.3
 149    4:00   73.3    33    3.9    30      5.3   949.3    0.00       0    76.7
 149    4:10   73.5    33    3.5    18      4.7   949.4    0.00       2    76.6
 149    4:20   72.5    34    2.2    30      3.2   949.5    0.00       3    76.2
 149    4:30   70.2    39    3.1    24      4.2   949.5    0.00       3    75.1
 149    4:40   69.5    40    3.4    11      4.2   949.6    0.00       7    74.5
 149    4:50   71.3    36    3.1   355      3.9   949.6    0.00      15    75.1
 149    5:00   73.1    34    2.7   326      4.4   949.7    0.00      25    75.4
 149    5:10   73.1    34    1.5    70      3.3   949.9    0.00      41    75.5
 149    5:20   71.4    37    2.7    79      3.9   950.1    0.00      63    76.6
 149    5:30   71.8    37    2.6    75      4.2   950.2    0.00      89    77.1
 149    5:40   72.6    35    3.1    69      4.5   950.3    0.00     114    77.8
 149    5:50   73.7    34    3.5    57      5.0   950.4    0.00     136    78.5
 149    6:00   74.5    33    3.6    59      5.0   950.5    0.00     159    79.3
 149    6:10   75.8    33    3.5    62      5.4   950.5    0.00     184    80.3
 149    6:20   76.5    31    4.0    63      5.4   950.6    0.00     209    81.2
 149    6:30   77.3    30    4.8    77      6.9   950.8    0.00     233    81.8
 149    6:40   78.7    28    5.4    51      7.4   950.9    0.00     257    82.5
 149    6:50   79.7    27    5.5    53      7.3   951.0    0.00     281    83.4
 149    7:00   80.6    26    4.7    65      7.7   951.2    0.00     306    83.7
 149    7:10   82.0    25    2.9    56      4.4   951.1    0.00     328    83.9
 149    7:20   82.8    24    3.9    75      6.1   951.1    0.00     353    84.5
 149    7:30   83.7    23    3.3    73      5.3   951.2    0.00     378    85.0
 149    7:40   84.7    23    3.8   107      6.3   951.2    0.00     401    85.4
 149    7:50   84.8    23    3.6   129      5.9   951.2    0.00     424    85.2
 149    8:00   86.4    22    2.9   141      5.3   951.1    0.00     447    85.0
 149    8:10   88.1    21    2.1   135      4.0   951.1    0.00     469    85.9
 149    8:20   88.6    20    2.0   120      4.0   951.1    0.00     489    87.2
 149    8:30   89.3    20    1.4   236      3.1   951.1    0.00     507    86.1
 149    8:40   89.9    20    1.7   204      4.1   951.1    0.00     528    88.2
 149    8:50   90.5    19    1.7   227      3.2   951.1    0.00     548    88.8
 149    9:00   90.1    18    2.7   326      5.7   951.1    0.00     566    90.1
 149    9:10   90.7    17    2.6   324      5.2   951.0    0.00     584    92.1
 149    9:20   91.4    16    2.9   312      7.5   950.9    0.00     600    92.8
 149    9:30   92.3    15    1.6   291      5.5   950.8    0.00     614    94.0
 149    9:40   92.8    15    2.1   285      4.8   950.8    0.00     628    92.4
 149    9:50   92.7    15    4.0   278      9.1   950.7    0.00     642    92.6
 149   10:00   92.2    15    3.0   273      5.7   950.7    0.00     653    92.8
 149   10:10   93.8    14    3.1   221      7.4   950.6    0.00     664    92.5
 149   10:20   93.6    15    2.9   233      6.3   950.5    0.00     675    92.4
 149   10:30   93.3    15    3.4   257      6.9   950.4    0.00     683    93.0
 149   10:40   94.7    14    1.9    40      4.5   950.3    0.00     690    94.5
 149   10:50   95.6    14    1.8   217      4.0   950.1    0.00     697    93.9
 149   11:00   95.3    14    3.3   284      8.8   950.0    0.00     702    94.3
 149   11:10   94.7    14    4.7   283      8.3   949.9    0.00     703    95.0
 149   11:20   94.8    14    4.1   263      9.9   949.8    0.00     704    95.0
 149   11:30   94.3    13    6.5   282     10.8   949.7    0.00     707    95.5
 149   11:40   94.8    13    5.5   276     11.2   949.6    0.00     709    96.1
 149   11:50   95.1    13    4.3   247     10.4   949.5    0.00     709    96.2
 149   12:00   96.1    12    5.1   246     11.1   949.4    0.00     709    96.6
 149   12:10   95.9    12    3.5   267      7.6   949.3    0.00     707    96.9
 149   12:20   96.7    12    4.8   267      9.6   949.1    0.00     705    98.0
 149   12:30   96.4    12    5.3   234     11.8   949.0    0.00     703    97.7
 149   12:40   97.6    11    5.6   209     13.8   948.8    0.00     698    97.9
 149   12:50   97.1    11    5.6   270      9.9   948.8    0.00     689    99.4
 149   13:00   96.8    11    4.9   262     11.3   948.6    0.00     681    100.6
 149   13:10   97.5    11    4.1   256      8.4   948.5    0.00     673    100.3
 149   13:20   98.4    10    3.6   236     12.3   948.2    0.00     664    101.2
 149   13:30   98.3    10    6.4   249     12.5   947.8    0.00     652    102.0
 149   13:40   98.2    10    3.4   238      6.3   947.6    0.00     640    102.6
 149   13:50   99.7    10    2.9   208      8.8   947.2    0.00     628    104.6
 149   14:00   98.6    10    6.3   234     14.2   947.1    0.00     614    103.8
 149   14:10   99.4    10    5.0   228     10.0   946.8    0.00     597    106.3
 149   14:20   98.8    10    6.6   239     13.4   946.5    0.00     582    107.2
 149   14:30   99.0    10    3.6   230      8.5   946.2    0.00     563    109.6
 149   14:40  100.0    10    5.2   234     13.2   946.0    0.00     546    109.9
 149   14:50  100.0    10    4.8   237     11.7   946.5    0.00     525    110.4
 149   15:00   99.2    10    4.9   229     12.4   946.7    0.00     505    109.3
 149   15:10   99.3    10    5.1   227     10.7   946.5    0.00     484    109.6
 149   15:20   99.6     9    4.4   222     12.9   946.3    0.00     462    110.1
 149   15:30   99.2    10    5.5   239     11.0   946.2    0.00     441    108.6
 149   15:40   99.0     9    5.1   221      9.5   946.2    0.00     418    108.4
 149   15:50   99.5     9    4.2   238      8.0   946.2    0.00     395    109.2
 149   16:00   99.3     9    5.5   262     12.4   946.2    0.00     372    108.3
 149   16:10   99.3     9    3.6   269      9.1   946.1    0.00     349    109.6
 149   16:20  100.2     9    3.4   227      8.9   946.0    0.00     326    109.7
 149   16:30   99.0     9    5.4   245      9.9   945.9    0.00     297    106.6
 149   16:40   99.3     8    1.9   258      5.3   946.0    0.00     272    108.3
 149   16:50   99.2     9    3.6   252      7.3   946.0    0.00     245    106.5
 149   17:00   99.6     9    3.1   277      6.1   946.0    0.00     222    106.7
 149   17:10   99.4     9    3.8   235      7.2   946.0    0.00     194    105.1
 149   17:20   99.3     9    3.7   226      8.5   946.0    0.00     162    104.6
 149   17:30   98.5     9    4.9   229      8.1   946.1    0.00     111    101.8
 149   17:40   97.7     9    3.6   236      7.3   946.1    0.00      81    100.6
 149   17:50   98.2     9    2.6   238      6.6   946.1    0.00      73    100.5
 149   18:00   97.3     9    3.2   264      5.3   946.1    0.00      56    99.0
 149   18:10   97.4     9    3.4   288      5.7   946.1    0.00      53    98.7
 149   18:20   96.7    10    3.7   279      5.6   946.2    0.00      35    97.2
 149   18:30   96.3    10    2.5   285      3.6   946.3    0.00      25    96.5
 149   18:40   95.5    10    0.8   298      2.4   946.3    0.00      13    95.9
 149   18:50   93.9    11    1.1   346      1.8   946.3    0.00       4    95.1
 149   19:00   92.7    11    1.4   358      1.9   946.4    0.00       3    94.4
 149   19:10   92.7    11    1.4    10      1.8   946.4    0.00       2    93.6
 149   19:20   91.9    11    2.2    46      2.9   946.5    0.00       1    92.1
 149   19:30   90.3    12    2.5    47      2.9   946.6    0.00       1    91.5
 149   19:40   88.7    13    4.7    23     10.2   946.7    0.00       1    90.9
 149   19:50   89.3    14    8.1    17     13.6   946.8    0.00       1    91.3
 149   20:00   89.2    15   10.2    25     16.1   946.9    0.00       1    91.1
 149   20:10   89.1    15   11.9    27     17.8   947.0    0.00       1    90.8
 149   20:20   88.8    15   11.0    28     16.1   947.1    0.00       1    90.4
 149   20:30   88.5    15   10.8    32     18.6   947.2    0.00       1    90.2
 149   20:40   88.1    16    8.2    44     13.6   947.2    0.00       1    90.2
 149   20:50   85.6    18    6.2   108      8.8   947.4    0.00       1    88.1

Return to Mesquite, Nevada graphs page.


Western Regional Climate Center,wrcc@dri.edu